Πλησιέστερες Αναφορές METAR

 

LGTS - Thessaloniki/Makedonia-Elev 7m
Απόσταση από σταθμό: Ν 13km
Ενημερώθηκε: 24/04/2024 19:20
Διάσπαρτα Νέφη
Διάσπαρτα Νέφη
 Ανεμοι από ΝΝΔ
Ανεμος: ΝΝΔ 9 km/h
Θερμοκρασία: 23°C
Σημείο Δρόσου: 9°C
Υγρασία: 41%
Βαρόμετρο: 1004 hPa
Νέφωση: Διάσπαρτα Νέφη
Ορατότητα: 10 km
Λεπτομέρειες Νεφών: Διάσπαρτα Νέφη 762 m
2024/04/24 16:20 LGTS 241620Z 20005KT 9999 FEW025 23/09 Q1004 NOSIG
LGAV - Athens/Elef. Venizelos-Elev 94m
Απόσταση από σταθμό: ΝΝΑ 312km
Ενημερώθηκε: 24/04/2024 19:20
Διάσπαρτα Νέφη
Διάσπαρτα Νέφη
 Ανεμοι από ΝΔ
Ανεμος: ΝΔ 19 km/h
Θερμοκρασία: 22°C
Σημείο Δρόσου: 9°C
Υγρασία: 44%
Βαρόμετρο: 1005 hPa
Νέφωση: Διάσπαρτα Νέφη
Ορατότητα: 10 km
Λεπτομέρειες Νεφών: Διάσπαρτα Νέφη 914 m
2024/04/24 16:20 LGAV 241620Z 23010KT 9999 FEW030 22/09 Q1005 NOSIG
 
LGAL - Alexandroupolis-Elev 3m
Απόσταση από σταθμό: Α 251km
Ενημερώθηκε: 24/04/2024 19:50
Διάσπαρτα Νέφη
Διάσπαρτα Νέφη
 Ανεμοι από ΔΝΔ
Ανεμος: ΔΝΔ 7 km/h
Θερμοκρασία: 18°C
Σημείο Δρόσου: 14°C
Υγρασία: 78%
Βαρόμετρο: 1003 hPa
Νέφωση: Διάσπαρτα Νέφη
Ορατότητα: 10 km
Λεπτομέρειες Νεφών: Διάσπαρτα Νέφη 610 m
2024/04/24 16:50 LGAL 241650Z 24004KT 9999 FEW020 18/14 Q1003
LGKV - Kavala/Crysoupolis-Elev 5m
Απόσταση από σταθμό: ΑΒΑ 144km
Ενημερώθηκε: 24/04/2024 19:50
Διάσπαρτα Νέφη
Διάσπαρτα Νέφη
 Ανεμοι από Δ
Ανεμος: Δ 15 km/h
Θερμοκρασία: 18°C
Σημείο Δρόσου: 14°C
Υγρασία: 78%
Βαρόμετρο: 1003 hPa
Νέφωση: Διάσπαρτα Νέφη
Ορατότητα: 10 km
Λεπτομέρειες Νεφών: Διάσπαρτα Νέφη 762 m
2024/04/24 16:50 LGKV 241650Z 28008KT 9999 FEW025 18/14 Q1003
 
LGSK - Skiathos Island-Elev 15m
Απόσταση από σταθμό: ΝΝΑ 168km
Ενημερώθηκε: 24/04/2024 16:50
ΜΗ Ενημερωμένο METAR!
Διάσπαρτα Νέφη
Διάσπαρτα Νέφη
 Ανεμοι από ΒΒΔ
Ανεμος: ΒΒΔ 7 km/h
Θερμοκρασία: 20°C
Σημείο Δρόσου: 16°C
Υγρασία: 78%
Βαρόμετρο: 1005 hPa
Νέφωση: Διάσπαρτα Νέφη
Ορατότητα: 9 km
Λεπτομέρειες Νεφών: Διάσπαρτα Νέφη 610 m
2024/04/24 13:50 LGSK 241350Z 34004KT 9000 FEW020 20/16 Q1005
LGLM - Limnos Island-Elev 5m
Απόσταση από σταθμό: ΑΝΑ 210km
Ενημερώθηκε: 24/04/2024 19:50
Διάσπαρτα Νέφη
Διάσπαρτα Νέφη
 Ανεμοι από μεταβλητός
Ανεμος: μεταβλητός 4 km/h
Θερμοκρασία: 18°C
Σημείο Δρόσου: 14°C
Υγρασία: 78%
Βαρόμετρο: 1004 hPa
Νέφωση: Διάσπαρτα Νέφη
Ορατότητα: 9 km
Λεπτομέρειες Νεφών: Διάσπαρτα Νέφη 610 m
2024/04/24 16:50 LGLM 241650Z VRB02KT 9000 FEW020 18/14 Q1004
 
LGMT - Mitilini Island-Elev 17m
Απόσταση από σταθμό: ΑΝΑ 358km
Ενημερώθηκε: 24/04/2024 19:50
Αίθριος
Αίθριος
 Ανεμοι από μεταβλητός
Ανεμος: μεταβλητός 6 km/h
Θερμοκρασία: 21°C
Σημείο Δρόσου: 16°C
Υγρασία: 73%
Βαρόμετρο: 1005 hPa
Περίληψη: Αίθριος
Ορατότητα: πάνω από 10 km
2024/04/24 16:50 LGMT 241650Z VRB03KT CAVOK 21/16 Q1005
LGSY - Skiros Island-Elev 15m
Απόσταση από σταθμό: ΝΑ 227km
Ενημερώθηκε: 24/04/2024 18:50
Διάσπαρτα Νέφη
Διάσπαρτα Νέφη
 Ανεμοι από ΑΒΑ
Ανεμος: ΑΒΑ 11 km/h
Θερμοκρασία: 19°C
Σημείο Δρόσου: 15°C
Υγρασία: 78%
Βαρόμετρο: 1005 hPa
Νέφωση: Διάσπαρτα Νέφη
Ορατότητα: 9 km
Λεπτομέρειες Νεφών: Διάσπαρτα Νέφη 610 m
2024/04/24 15:50 LGSY 241550Z 07006KT 9000 FEW020 19/15 Q1005 RMK FEW080 BKN180 BLU
 
LGKZ - Kozani-Elev 628m
Απόσταση από σταθμό: ΔΝΔ 102km
Ενημερώθηκε: 24/04/2024 19:50

 Ανεμοι από Δ
Ανεμος: Δ 9 km/h
Θερμοκρασία: 17°C
Σημείο Δρόσου: 1°C
Υγρασία: 34%
Βαρόμετρο: 1005 hPa
2024/04/24 16:50 LGKZ 241650Z AUTO 26005KT //// // ////// 17/01 Q1005 RE//
LGIO - Ioannina-Elev 476m
Απόσταση από σταθμό: ΔΝΔ 209km
Ενημερώθηκε: 24/04/2024 19:50
Διάσπαρτα Νέφη
Διάσπαρτα Νέφη
 Ανεμοι από ΒΔ
Ανεμος: ΒΔ 11 km/h
Θερμοκρασία: 15°C
Σημείο Δρόσου: 5°C
Υγρασία: 51%
Βαρόμετρο: 1008 hPa
Νέφωση: Διάσπαρτα Νέφη
Ορατότητα: 10 km
Λεπτομέρειες Νεφών: Διάσπαρτα Νέφη 1524 m
2024/04/24 16:50 LGIO 241650Z 31006KT 9999 FEW050 15/05 Q1008
 
LGZA - Zakinthos-Elev 3m
Απόσταση από σταθμό: ΝΝΔ 367km
Ενημερώθηκε: 24/04/2024 19:50
Διάσπαρτα Νέφη
Διάσπαρτα Νέφη
 Ανεμοι από Β
Ανεμος: Β 7 km/h
Θερμοκρασία: 19°C
Σημείο Δρόσου: 9°C
Υγρασία: 52%
Βαρόμετρο: 1008 hPa
Νέφωση: Διάσπαρτα Νέφη
Ορατότητα: 10 km
Λεπτομέρειες Νεφών: Διάσπαρτα Νέφη 762 m
2024/04/24 16:50 LGZA 241650Z 35004KT 9999 FEW025 19/09 Q1008
LGKR - Corfu Island-Elev 2m
Απόσταση από σταθμό: ΔΝΔ 282km
Ενημερώθηκε: 24/04/2024 19:20
Μερικώς νεφελώδης
Μερικώς νεφελώδης
 Ανεμοι από ΝΔ
Ανεμος: ΝΔ 13 km/h
Θερμοκρασία: 17°C
Σημείο Δρόσου: 10°C
Υγρασία: 64%
Βαρόμετρο: 1008 hPa
Νέφωση: Μερικώς νεφελώδης
Ορατότητα: 10 km
Λεπτομέρειες Νεφών: Διάσπαρτα Νέφη 762 m
Μερικώς νεφελώδης 2438 m
2024/04/24 16:20 LGKR 241620Z 23007KT 9999 FEW025 SCT080 17/10 Q1008 NOSIG
 
LGSO - Syros Island-Elev 72m
Απόσταση από σταθμό: ΝΝΑ 397km
Ενημερώθηκε: 24/04/2024 19:50
Μερικώς νεφελώδης
Μερικώς νεφελώδης
 Ανεμοι από άπνοια
Ανεμος: άπνοια
Θερμοκρασία: 19°C
Σημείο Δρόσου: 16°C
Υγρασία: 83%
Βαρόμετρο: 1005 hPa
Νέφωση: Μερικώς νεφελώδης
Ορατότητα: 6 km
Λεπτομέρειες Νεφών: Μερικώς νεφελώδης 549 m
2024/04/24 16:50 LGSO 241650Z 00000KT 6000 SCT018 19/16 Q1005
LGMK - Mikonos Island-Elev 123m
Απόσταση από σταθμό: ΝΝΑ 412km
Ενημερώθηκε: 24/04/2024 19:50
Widespread dust, Μερικώς νεφελώδης
Widespread dust, Μερικώς νεφελώδης
 Ανεμοι από μεταβλητός
Ανεμος: μεταβλητός 4 km/h
Θερμοκρασία: 19°C
Σημείο Δρόσου: 14°C
Υγρασία: 73%
Βαρόμετρο: 1005 hPa
Περίληψη: Widespread Dust
Νέφωση: Μερικώς νεφελώδης
Ορατότητα: 4 km
Λεπτομέρειες Νεφών: Μερικώς νεφελώδης 305 m
2024/04/24 16:50 LGMK 241650Z VRB02KT 4000 DU SCT010 19/14 Q1005
 
LGSR - Santorini Island-Elev 40m
Απόσταση από σταθμό: ΝΝΑ 520km
Ενημερώθηκε: 24/04/2024 19:50
Διάσπαρτα Νέφη
Διάσπαρτα Νέφη
 Ανεμοι από ΔΝΔ
Ανεμος: ΔΝΔ 28 km/h
Θερμοκρασία: 19°C
Σημείο Δρόσου: 15°C
Υγρασία: 78%
Βαρόμετρο: 1005 hPa
Νέφωση: Διάσπαρτα Νέφη
Ορατότητα: 8 km
Λεπτομέρειες Νεφών: Διάσπαρτα Νέφη 427 m
2024/04/24 16:50 LGSR 241650Z 25015KT 8000 FEW014 19/15 Q1005
LGKL - Kalamata-Elev 8m
Απόσταση από σταθμό: Ν 405km
Ενημερώθηκε: 24/04/2024 19:50
Διάσπαρτα Νέφη
Διάσπαρτα Νέφη
 Ανεμοι από Β
Ανεμος: Β 19 km/h
Θερμοκρασία: 18°C
Σημείο Δρόσου: 10°C
Υγρασία: 60%
Βαρόμετρο: 1007 hPa
Νέφωση: Διάσπαρτα Νέφη
Ορατότητα: 10 km
Λεπτομέρειες Νεφών: Διάσπαρτα Νέφη 914 m
2024/04/24 16:50 LGKL 241650Z 01010KT 9999 FEW030 18/10 Q1007
 
LGIR - Iraklion/Crete-Elev 5m
Απόσταση από σταθμό: ΝΝΑ 622km
Ενημερώθηκε: 24/04/2024 19:20
Σχεδόν νεφελώδης
Σχεδόν νεφελώδης
 Ανεμοι από ΒΔ
Ανεμος: ΒΔ 19 km/h
Θερμοκρασία: 20°C
Σημείο Δρόσου: 13°C
Υγρασία: 64%
Βαρόμετρο: 1007 hPa
Νέφωση: Σχεδόν νεφελώδης
Ορατότητα: 10 km
Λεπτομέρειες Νεφών: Διάσπαρτα Νέφη 610 m
Σχεδόν νεφελώδης 2438 m
2024/04/24 16:20 LGIR 241620Z 32010KT 9999 FEW020 BKN080 20/13 Q1007 NOSIG
LGRP - Rhodes-Elev 5m
Απόσταση από σταθμό: ΝΑ 649km
Ενημερώθηκε: 24/04/2024 19:20
Διάσπαρτα Νέφη
Διάσπαρτα Νέφη
 Ανεμοι από ΝΑ
Ανεμος: ΝΑ 19 km/h
Θερμοκρασία: 23°C
Σημείο Δρόσου: 15°C
Υγρασία: 61%
Βαρόμετρο: 1005 hPa
Νέφωση: Διάσπαρτα Νέφη
Ορατότητα: 10 km
Λεπτομέρειες Νεφών: Διάσπαρτα Νέφη 549 m
2024/04/24 16:20 LGRP 241620Z 14010KT 090V180 9999 FEW018 23/15 Q1005 WS R06 NOSIG
 
LWOH - Ohrid/FYROM-Elev 761m
Απόσταση από σταθμό: ΔΒΔ 188km
Ενημερώθηκε: 24/04/2024 19:50
Μερικώς νεφελώδης
Μερικώς νεφελώδης
 Ανεμοι από ΝΝΔ
Ανεμος: ΝΝΔ 9 km/h
Θερμοκρασία: 14°C
Σημείο Δρόσου: 4°C
Υγρασία: 51%
Βαρόμετρο: 1006 hPa
Νέφωση: Μερικώς νεφελώδης
Ορατότητα: 10 km
Λεπτομέρειες Νεφών: Μερικώς νεφελώδης 1494 m
2024/04/24 16:50 LWOH 241650Z 20005KT 170V240 9999 SCT049 14/04 Q1006
LBSF - Sofia/Bulgaria-Elev 595m
Απόσταση από σταθμό: Β 227km
Ενημερώθηκε: 24/04/2024 19:30
Μερικώς νεφελώδης
Μερικώς νεφελώδης
 Ανεμοι από ΝΔ
Ανεμος: ΝΔ 22 km/h
Θερμοκρασία: 20°C
Σημείο Δρόσου: 1°C
Υγρασία: 28%
Βαρόμετρο: 1003 hPa
Νέφωση: Μερικώς νεφελώδης
Ορατότητα: 10 km
2024/04/24 16:30 LBSF 241630Z AUTO 23012KT 9999 NSC 20/01 Q1003 NOSIG